Time;durP1;ratioP1;P1;durP2;ratioP2;P2;SDS_P1;SDS_P2;PMS_P1;PMS_P2;Temp;Humidity;BMP_temperature;BMP_pressure;BME280_temperature;BME280_humidity;BME280_pressure;Samples;Min_cycle;Max_cycle;Signal;HPM_P1;HPM_P2
2022/10/31 00:00:08;;;;;;;7.67;6.30;;;15.80;89.20;;;;;;5079012;28;20173;-47
2022/10/31 00:02:33;;;;;;;8.10;5.93;;;15.70;89.20;;;;;;5078714;28;20198;-48
2022/10/31 00:04:59;;;;;;;6.70;6.00;;;15.70;89.50;;;;;;5079828;28;20441;-47
2022/10/31 00:07:25;;;;;;;8.27;6.37;;;15.70;89.80;;;;;;5097373;28;20287;-45
2022/10/31 00:09:50;;;;;;;7.47;6.23;;;15.70;90.00;;;;;;5089426;28;20182;-47
2022/10/31 00:12:16;;;;;;;7.77;6.10;;;15.70;90.10;;;;;;5060854;28;20181;-47
2022/10/31 00:14:41;;;;;;;6.50;5.90;;;15.60;90.10;;;;;;5078071;28;20464;-47
2022/10/31 00:17:07;;;;;;;8.00;5.70;;;15.60;90.20;;;;;;5079281;28;20191;-47
2022/10/31 00:19:33;;;;;;;7.80;6.47;;;15.60;90.20;;;;;;5097783;28;20679;-47
2022/10/31 00:21:59;;;;;;;6.90;5.80;;;15.50;90.20;;;;;;5080560;28;20467;-46
2022/10/31 00:24:25;;;;;;;6.40;5.20;;;15.50;90.40;;;;;;5098367;28;20188;-48
2022/10/31 00:26:50;;;;;;;5.03;4.43;;;15.50;90.40;;;;;;5098401;28;20418;-48
2022/10/31 00:29:16;;;;;;;8.23;5.27;;;15.40;90.30;;;;;;5080513;28;20430;-47
2022/10/31 00:31:42;;;;;;;6.93;5.70;;;15.50;90.40;;;;;;5097593;28;20524;-48
2022/10/31 00:34:07;;;;;;;7.93;6.20;;;15.40;90.40;;;;;;5098523;28;20562;-46
2022/10/31 00:36:33;;;;;;;6.43;5.83;;;15.40;90.40;;;;;;5098303;28;20183;-46
2022/10/31 00:38:59;;;;;;;8.70;5.40;;;15.40;90.50;;;;;;5098173;28;20490;-50
2022/10/31 00:41:24;;;;;;;6.37;5.40;;;15.30;90.50;;;;;;5097814;28;20179;-46
2022/10/31 00:43:50;;;;;;;6.50;5.70;;;15.30;90.60;;;;;;5098358;28;20176;-46
2022/10/31 00:46:16;;;;;;;6.40;5.20;;;15.30;90.70;;;;;;5098099;28;20463;-45
2022/10/31 00:48:42;;;;;;;7.07;5.33;;;15.20;90.60;;;;;;5097881;28;20456;-46
2022/10/31 00:51:07;;;;;;;6.50;5.30;;;15.20;90.70;;;;;;5098005;28;20514;-46
2022/10/31 00:53:33;;;;;;;8.17;5.53;;;15.20;90.80;;;;;;5097026;28;20425;-46
2022/10/31 00:55:59;;;;;;;6.13;4.80;;;15.20;90.80;;;;;;5096700;28;20245;-46
2022/10/31 00:58:24;;;;;;;8.10;5.30;;;15.10;90.80;;;;;;5097319;28;20293;-47
2022/10/31 01:00:54;;;;;;;6.40;5.50;;;15.10;90.80;;;;;;5097678;28;20205;-46
2022/10/31 01:03:24;;;;;;;7.63;5.87;;;15.10;90.80;;;;;;5097701;28;20415;-47
2022/10/31 01:05:57;;;;;;;6.03;5.37;;;15.10;90.80;;;;;;5079707;28;20421;-52
2022/10/31 01:08:22;;;;;;;7.10;5.97;;;15.00;90.70;;;;;;5097841;28;20756;-49
2022/10/31 01:10:59;;;;;;;7.83;4.90;;;15.00;90.80;;;;;;5097405;28;20515;-47
2022/10/31 01:13:24;;;;;;;7.57;5.70;;;15.00;90.80;;;;;;5097340;28;20246;-46
2022/10/31 01:15:55;;;;;;;5.33;4.83;;;14.90;90.80;;;;;;5097917;28;20435;-49
2022/10/31 01:18:20;;;;;;;5.97;5.10;;;14.90;90.80;;;;;;5097111;28;20280;-45
2022/10/31 01:20:46;;;;;;;7.73;5.10;;;14.90;90.80;;;;;;5097238;28;20516;-47
2022/10/31 01:23:12;;;;;;;5.47;4.63;;;14.90;90.90;;;;;;5096477;28;20569;-48
2022/10/31 01:25:37;;;;;;;5.07;4.57;;;14.90;91.00;;;;;;5078320;28;20189;-47
2022/10/31 01:28:03;;;;;;;8.30;5.60;;;14.80;91.00;;;;;;5096510;28;20190;-48
2022/10/31 01:30:29;;;;;;;5.70;4.60;;;14.80;91.10;;;;;;5096780;28;20281;-48
2022/10/31 01:32:54;;;;;;;7.50;5.20;;;14.80;91.20;;;;;;5097173;28;20184;-46
2022/10/31 01:35:20;;;;;;;8.67;5.17;;;14.80;91.30;;;;;;5096494;28;20190;-48
2022/10/31 01:37:45;;;;;;;7.27;5.27;;;14.80;91.30;;;;;;5097026;28;20288;-46
2022/10/31 01:40:11;;;;;;;13.10;5.70;;;14.80;91.40;;;;;;5096938;28;20183;-45
2022/10/31 01:42:37;;;;;;;8.00;4.63;;;14.80;91.40;;;;;;5098162;28;20183;-46
2022/10/31 01:45:03;;;;;;;8.40;5.30;;;14.80;91.50;;;;;;5101707;28;20182;-44
2022/10/31 01:47:43;;;;;;;5.33;4.73;;;14.80;91.50;;;;;;5081826;28;20647;-45
2022/10/31 01:50:15;;;;;;;6.83;4.80;;;14.80;91.60;;;;;;5099539;28;20747;-49
2022/10/31 01:52:50;;;;;;;8.00;4.87;;;14.70;91.60;;;;;;5081946;28;20494;-46
2022/10/31 01:55:23;;;;;;;6.20;4.50;;;14.70;91.60;;;;;;5099065;28;20427;-47
2022/10/31 01:57:52;;;;;;;6.90;5.07;;;14.60;91.40;;;;;;5098849;28;20465;-45
2022/10/31 02:00:20;;;;;;;7.90;5.27;;;14.60;91.50;;;;;;5099567;28;20430;-45
2022/10/31 02:02:46;;;;;;;5.97;4.90;;;14.60;91.60;;;;;;5100640;28;20419;-44
2022/10/31 02:05:18;;;;;;;7.20;4.90;;;14.50;91.70;;;;;;5083251;28;20425;-45
2022/10/31 02:08:07;;;;;;;6.07;5.10;;;14.50;91.70;;;;;;5101211;28;20418;-47
2022/10/31 02:10:33;;;;;;;8.90;5.03;;;14.50;91.80;;;;;;5100248;28;20454;-46
2022/10/31 02:13:02;;;;;;;7.73;5.53;;;14.50;91.80;;;;;;5100673;28;20463;-46
2022/10/31 02:15:29;;;;;;;5.40;4.90;;;14.50;91.80;;;;;;5100518;28;20847;-45
2022/10/31 02:17:54;;;;;;;4.50;4.10;;;14.50;91.80;;;;;;5082224;28;20670;-48
2022/10/31 02:20:22;;;;;;;6.37;5.47;;;14.50;91.90;;;;;;5099204;28;20491;-46
2022/10/31 02:23:25;;;;;;;6.33;5.37;;;14.40;91.90;;;;;;5100302;28;20179;-48
2022/10/31 02:26:03;;;;;;;7.80;5.87;;;14.40;91.90;;;;;;5100256;28;20425;-47
2022/10/31 02:28:50;;;;;;;6.10;4.90;;;14.40;91.90;;;;;;5100209;28;20409;-46
2022/10/31 02:31:31;;;;;;;7.20;5.67;;;14.40;91.90;;;;;;5100298;28;20491;-47
2022/10/31 02:34:18;;;;;;;6.97;5.57;;;14.40;91.90;;;;;;5099626;28;20720;-46
2022/10/31 02:36:56;;;;;;;7.30;5.57;;;14.40;91.90;;;;;;5083023;28;20420;-48
2022/10/31 02:39:26;;;;;;;7.53;5.47;;;14.30;91.90;;;;;;5100346;28;20587;-45
2022/10/31 02:42:03;;;;;;;6.70;5.17;;;14.30;91.90;;;;;;5082652;28;20439;-45
2022/10/31 02:44:47;;;;;;;5.23;4.17;;;14.30;91.80;;;;;;5099337;28;20412;-45
2022/10/31 02:47:17;;;;;;;6.30;4.50;;;14.30;91.90;;;;;;5100864;28;21104;-46
2022/10/31 02:49:54;;;;;;;7.67;4.93;;;14.30;91.90;;;;;;5100510;28;20831;-46
2022/10/31 02:52:20;;;;;;;5.47;4.50;;;14.20;91.90;;;;;;5099645;28;20425;-46
2022/10/31 02:54:47;;;;;;;7.13;4.90;;;14.20;91.90;;;;;;5098784;28;20423;-48
2022/10/31 02:57:13;;;;;;;7.50;4.70;;;14.20;91.90;;;;;;5100479;28;20466;-46
2022/10/31 02:59:44;;;;;;;6.87;6.17;;;14.20;92.00;;;;;;5099877;28;20776;-46
2022/10/31 03:02:45;;;;;;;5.27;4.73;;;14.10;91.90;;;;;;5081757;28;20833;-46
2022/10/31 03:05:22;;;;;;;6.60;5.30;;;14.10;92.00;;;;;;4999036;28;20522;-45
2022/10/31 03:08:11;;;;;;;6.47;4.70;;;14.10;92.00;;;;;;5087206;28;20416;-46
2022/10/31 03:10:50;;;;;;;5.63;4.57;;;14.00;92.00;;;;;;5082220;28;20435;-46
2022/10/31 03:13:39;;;;;;;5.17;4.30;;;14.00;92.10;;;;;;5082538;28;20421;-45
2022/10/31 03:16:41;;;;;;;6.03;4.87;;;14.00;92.10;;;;;;5099966;28;20454;-46
2022/10/31 03:19:15;;;;;;;6.20;4.30;;;14.00;92.20;;;;;;5043499;28;20538;-45
2022/10/31 03:22:04;;;;;;;5.23;4.60;;;14.00;92.20;;;;;;5081825;28;20445;-46
2022/10/31 03:24:32;;;;;;;7.87;5.13;;;14.00;92.30;;;;;;5082300;28;20411;-45
2022/10/31 03:26:59;;;;;;;6.50;4.50;;;13.90;92.20;;;;;;5082206;28;20441;-48
2022/10/31 03:29:27;;;;;;;5.90;4.80;;;13.90;92.30;;;;;;5098449;28;20690;-46
2022/10/31 03:32:00;;;;;;;6.33;5.73;;;13.90;92.30;;;;;;5099558;28;20857;-48
2022/10/31 03:34:26;;;;;;;5.67;4.60;;;13.90;92.30;;;;;;5100068;28;20422;-45
2022/10/31 03:36:53;;;;;;;5.20;4.67;;;13.90;92.30;;;;;;5081012;28;20460;-46
2022/10/31 03:39:20;;;;;;;6.70;5.33;;;13.90;92.30;;;;;;5081188;28;20465;-49
2022/10/31 03:41:54;;;;;;;5.70;5.10;;;13.80;92.20;;;;;;5100038;28;20523;-47
2022/10/31 03:44:21;;;;;;;5.47;4.27;;;13.80;92.20;;;;;;5081630;28;20400;-47
2022/10/31 03:46:47;;;;;;;5.47;4.17;;;13.80;92.30;;;;;;5099844;28;20525;-48
2022/10/31 03:49:13;;;;;;;5.27;4.77;;;13.80;92.20;;;;;;5081389;28;20497;-45
2022/10/31 03:51:41;;;;;;;6.37;4.53;;;13.80;92.30;;;;;;5081753;28;20184;-46
2022/10/31 03:54:14;;;;;;;8.70;5.53;;;13.80;92.20;;;;;;5099021;28;20408;-46
2022/10/31 03:56:53;;;;;;;6.83;5.07;;;13.80;92.20;;;;;;5097431;28;20483;-46
2022/10/31 03:59:26;;;;;;;5.70;5.17;;;13.70;92.20;;;;;;5080818;28;20456;-47
2022/10/31 04:01:57;;;;;;;6.37;4.50;;;13.70;92.10;;;;;;5099007;28;20428;-48
2022/10/31 04:04:23;;;;;;;5.00;4.33;;;13.70;92.20;;;;;;5097534;28;20422;-46
2022/10/31 04:06:49;;;;;;;5.97;4.63;;;13.70;92.30;;;;;;5080432;28;20882;-47
2022/10/31 04:09:15;;;;;;;6.87;5.10;;;13.70;92.40;;;;;;5097721;28;20173;-47
2022/10/31 04:11:44;;;;;;;5.20;4.07;;;13.70;92.40;;;;;;5080666;28;20442;-47
2022/10/31 04:14:11;;;;;;;6.13;4.97;;;13.60;92.40;;;;;;5097888;28;20165;-48
2022/10/31 04:16:41;;;;;;;6.00;5.00;;;13.70;92.40;;;;;;5099096;28;20434;-47
2022/10/31 04:19:07;;;;;;;5.90;4.93;;;13.60;92.40;;;;;;5080791;28;20745;-45
2022/10/31 04:21:32;;;;;;;5.60;5.10;;;13.60;92.40;;;;;;5098416;28;20426;-47
2022/10/31 04:23:58;;;;;;;6.63;4.90;;;13.60;92.50;;;;;;5080547;28;20213;-46
2022/10/31 04:26:24;;;;;;;7.00;5.60;;;13.60;92.50;;;;;;5080521;28;20191;-46
2022/10/31 04:28:49;;;;;;;6.80;4.87;;;13.60;92.50;;;;;;5098134;28;20418;-46
2022/10/31 04:31:15;;;;;;;7.93;5.17;;;13.60;92.50;;;;;;5098098;28;20186;-48
2022/10/31 04:33:41;;;;;;;4.83;4.33;;;13.60;92.50;;;;;;5098256;28;20540;-46
2022/10/31 04:36:06;;;;;;;5.77;4.70;;;13.50;92.50;;;;;;5097407;28;20196;-45
2022/10/31 04:38:32;;;;;;;6.57;3.97;;;13.50;92.60;;;;;;5080088;28;20261;-47
2022/10/31 04:40:58;;;;;;;5.90;5.20;;;13.50;92.60;;;;;;5097867;28;20422;-47
2022/10/31 04:43:24;;;;;;;5.67;5.10;;;13.50;92.50;;;;;;5098059;28;20423;-45
2022/10/31 04:45:49;;;;;;;7.30;4.67;;;13.50;92.90;;;;;;5097601;28;20445;-47
2022/10/31 04:48:15;;;;;;;5.60;4.80;;;13.50;92.90;;;;;;5097413;28;20169;-46
2022/10/31 04:50:41;;;;;;;5.60;4.70;;;13.40;92.70;;;;;;5097948;28;20177;-48
2022/10/31 04:53:07;;;;;;;5.37;4.70;;;13.40;92.70;;;;;;5097725;28;20236;-46
2022/10/31 04:55:33;;;;;;;6.93;4.27;;;13.50;92.80;;;;;;5098012;28;20284;-47
2022/10/31 04:57:58;;;;;;;6.97;4.97;;;13.40;92.70;;;;;;5080071;28;20642;-47
2022/10/31 05:00:24;;;;;;;4.80;4.30;;;13.40;92.70;;;;;;5096135;28;20557;-46
2022/10/31 05:02:54;;;;;;;6.53;5.17;;;13.40;92.80;;;;;;5078114;28;20318;-48
2022/10/31 05:05:23;;;;;;;5.60;5.10;;;13.40;92.80;;;;;;5097088;28;20176;-45
2022/10/31 05:07:49;;;;;;;7.40;5.07;;;13.40;92.90;;;;;;5097744;28;20403;-45
2022/10/31 05:10:18;;;;;;;6.87;5.03;;;13.40;92.90;;;;;;5079034;28;20430;-44
2022/10/31 05:12:52;;;;;;;5.20;4.43;;;13.30;92.70;;;;;;5096634;28;20847;-45
2022/10/31 05:15:18;;;;;;;6.13;5.57;;;13.30;92.70;;;;;;5095938;28;20443;-45
2022/10/31 05:17:44;;;;;;;5.70;4.80;;;13.20;92.70;;;;;;5097018;28;20419;-46
2022/10/31 05:20:11;;;;;;;5.30;4.80;;;13.20;92.90;;;;;;5080074;28;20440;-48
2022/10/31 05:22:36;;;;;;;6.17;4.53;;;13.20;92.90;;;;;;5097514;28;20188;-47
2022/10/31 05:25:02;;;;;;;6.80;4.33;;;13.20;93.00;;;;;;5097344;28;20436;-45
2022/10/31 05:27:28;;;;;;;5.43;4.90;;;13.20;93.00;;;;;;5096664;28;20183;-46
2022/10/31 05:29:54;;;;;;;5.20;4.47;;;13.20;93.00;;;;;;5096802;28;20418;-46
2022/10/31 05:32:19;;;;;;;5.57;4.50;;;13.20;93.30;;;;;;5097400;28;20179;-46
2022/10/31 05:34:45;;;;;;;7.23;5.13;;;13.20;93.00;;;;;;5097333;28;20180;-47
2022/10/31 05:37:10;;;;;;;6.13;4.50;;;13.20;93.10;;;;;;5096768;28;20265;-48
2022/10/31 05:39:36;;;;;;;5.20;4.70;;;13.20;93.10;;;;;;5076283;28;20235;-47
2022/10/31 05:42:02;;;;;;;7.77;5.50;;;13.10;93.20;;;;;;5077307;28;20204;-45
2022/10/31 05:44:28;;;;;;;5.70;5.10;;;13.10;93.10;;;;;;5076796;28;20432;-46
2022/10/31 05:46:53;;;;;;;5.40;4.90;;;13.10;93.20;;;;;;5077309;28;20426;-45
2022/10/31 05:49:19;;;;;;;5.80;5.20;;;13.10;93.30;;;;;;5076113;28;20186;-46
2022/10/31 05:51:45;;;;;;;7.57;5.53;;;13.10;93.30;;;;;;5076659;28;20195;-45
2022/10/31 05:54:10;;;;;;;6.90;4.60;;;13.10;93.20;;;;;;5057983;28;20177;-45
2022/10/31 05:56:36;;;;;;;5.13;4.50;;;13.10;93.20;;;;;;5073514;28;20248;-46
2022/10/31 05:59:01;;;;;;;5.70;5.20;;;13.10;93.20;;;;;;5074531;28;20202;-48
2022/10/31 06:01:27;;;;;;;9.87;5.53;;;13.10;93.20;;;;;;5056522;28;20209;-46
2022/10/31 06:03:53;;;;;;;5.70;5.00;;;13.10;93.10;;;;;;5073275;28;20184;-47
2022/10/31 06:06:18;;;;;;;7.80;5.30;;;13.00;93.10;;;;;;5077533;28;20272;-43
2022/10/31 06:08:44;;;;;;;6.40;5.23;;;13.00;93.10;;;;;;5075831;28;20808;-47
2022/10/31 06:11:09;;;;;;;6.53;4.80;;;13.00;92.80;;;;;;5075230;28;20193;-48
2022/10/31 06:13:35;;;;;;;5.30;4.70;;;12.90;92.80;;;;;;5075271;28;20177;-44
2022/10/31 06:16:01;;;;;;;7.83;5.20;;;12.80;92.90;;;;;;5075568;28;20275;-45
2022/10/31 06:18:26;;;;;;;5.50;4.70;;;12.70;92.90;;;;;;5093695;28;20452;-47
2022/10/31 06:20:52;;;;;;;7.40;5.10;;;12.70;93.10;;;;;;5096154;28;20208;-44
2022/10/31 06:23:17;;;;;;;5.63;4.93;;;12.70;93.20;;;;;;5095484;28;20239;-47
2022/10/31 06:25:43;;;;;;;6.97;5.37;;;12.60;93.30;;;;;;5095864;28;20186;-44
2022/10/31 06:28:10;;;;;;;5.60;4.97;;;12.70;93.50;;;;;;5095411;28;20604;-46
2022/10/31 06:30:35;;;;;;;9.17;5.17;;;12.70;93.50;;;;;;5099732;28;20186;-44
2022/10/31 06:33:03;;;;;;;7.03;5.37;;;12.70;93.60;;;;;;5099342;28;20414;-45
2022/10/31 06:35:29;;;;;;;5.43;4.90;;;12.80;93.70;;;;;;5099947;28;20195;-44
2022/10/31 06:37:54;;;;;;;5.73;4.80;;;12.90;93.70;;;;;;5099846;28;20864;-44
2022/10/31 06:40:20;;;;;;;7.97;5.20;;;13.00;93.60;;;;;;5099098;28;20536;-44
2022/10/31 06:42:46;;;;;;;6.47;5.80;;;13.00;93.40;;;;;;5098485;28;20176;-47
2022/10/31 06:45:11;;;;;;;6.50;5.13;;;13.20;93.70;;;;;;5099613;28;20192;-46
2022/10/31 06:47:37;;;;;;;7.07;5.23;;;13.30;93.20;;;;;;5099133;28;20180;-44
2022/10/31 06:50:03;;;;;;;6.13;5.37;;;13.60;93.10;;;;;;5079534;28;20279;-44
2022/10/31 06:52:28;;;;;;;6.10;5.50;;;13.80;92.70;;;;;;5100105;28;20186;-45
2022/10/31 06:54:54;;;;;;;6.70;4.97;;;14.10;92.40;;;;;;5099745;28;20421;-47
2022/10/31 06:57:20;;;;;;;6.57;5.33;;;14.30;92.10;;;;;;5080288;28;20496;-44
2022/10/31 06:59:45;;;;;;;5.63;4.77;;;14.50;91.80;;;;;;5098445;28;20206;-45
2022/10/31 07:02:11;;;;;;;7.13;5.80;;;14.70;91.50;;;;;;5097973;28;20459;-44
2022/10/31 07:04:37;;;;;;;5.27;4.67;;;14.80;91.20;;;;;;5098718;28;20173;-45
2022/10/31 07:07:03;;;;;;;5.20;4.70;;;14.80;91.00;;;;;;5099496;28;20474;-45
2022/10/31 07:09:28;;;;;;;7.23;5.40;;;14.90;91.00;;;;;;5099327;28;20406;-44
2022/10/31 07:11:54;;;;;;;6.20;5.60;;;15.00;90.90;;;;;;5098555;28;20190;-46
2022/10/31 07:14:20;;;;;;;7.33;5.67;;;15.10;90.70;;;;;;5080799;28;20183;-46
2022/10/31 07:16:50;;;;;;;5.67;5.10;;;15.20;90.60;;;;;;5097954;28;20594;-44
2022/10/31 07:19:16;;;;;;;6.80;5.87;;;15.40;90.50;;;;;;5095096;28;20216;-45
2022/10/31 07:21:41;;;;;;;6.67;5.97;;;15.50;90.40;;;;;;5078958;28;20538;-43
2022/10/31 07:24:07;;;;;;;6.27;5.37;;;15.60;90.20;;;;;;5095084;28;20251;-47
2022/10/31 07:26:33;;;;;;;7.50;6.40;;;15.60;90.10;;;;;;5095641;28;20294;-46
2022/10/31 07:28:59;;;;;;;6.07;5.47;;;15.70;90.00;;;;;;5095417;28;20181;-44
2022/10/31 07:31:25;;;;;;;7.83;6.30;;;15.80;89.80;;;;;;5096686;28;20192;-44
2022/10/31 07:33:50;;;;;;;7.70;5.90;;;15.90;89.50;;;;;;5097414;28;20408;-47
2022/10/31 07:36:16;;;;;;;7.63;5.33;;;16.00;89.20;;;;;;5094102;28;20570;-44
2022/10/31 07:38:42;;;;;;;6.90;5.10;;;16.20;88.90;;;;;;5094297;28;20202;-45
2022/10/31 07:41:07;;;;;;;7.70;6.33;;;16.40;88.60;;;;;;5096028;28;20182;-46
2022/10/31 07:43:33;;;;;;;9.27;6.03;;;16.50;88.00;;;;;;5096325;28;20192;-47
2022/10/31 07:45:59;;;;;;;8.10;6.30;;;16.70;87.60;;;;;;5077411;28;20188;-44
2022/10/31 07:48:25;;;;;;;7.00;6.13;;;17.00;87.40;;;;;;5097913;28;20305;-45
2022/10/31 07:50:51;;;;;;;10.50;7.27;;;17.20;86.70;;;;;;5097255;28;20449;-46
2022/10/31 07:53:16;;;;;;;5.97;5.37;;;17.50;86.10;;;;;;5095972;28;20271;-46
2022/10/31 07:55:43;;;;;;;6.10;5.03;;;17.70;85.40;;;;;;5095855;28;20296;-50
2022/10/31 07:58:14;;;;;;;6.83;6.20;;;18.10;84.90;;;;;;5096262;28;20226;-43
2022/10/31 08:00:42;;;;;;;9.40;6.80;;;18.50;83.90;;;;;;5096228;28;20429;-45
2022/10/31 08:03:10;;;;;;;7.50;5.83;;;18.90;82.80;;;;;;5097123;28;20419;-47
2022/10/31 08:05:36;;;;;;;6.20;5.60;;;19.30;81.70;;;;;;5097707;28;20427;-42
2022/10/31 08:08:03;;;;;;;6.20;5.07;;;19.70;80.30;;;;;;5097804;28;20484;-49
2022/10/31 08:10:29;;;;;;;6.23;5.63;;;20.10;78.90;;;;;;5096184;28;20424;-48
2022/10/31 08:12:56;;;;;;;6.50;5.73;;;20.30;77.60;;;;;;5069724;28;20706;-43
2022/10/31 08:15:22;;;;;;;6.23;5.73;;;20.60;76.70;;;;;;5099989;28;20384;-46
2022/10/31 08:17:47;;;;;;;6.60;6.00;;;20.90;75.80;;;;;;5076248;28;20460;-46
2022/10/31 08:20:13;;;;;;;9.73;7.10;;;21.10;75.10;;;;;;5096337;28;20288;-45
2022/10/31 08:22:39;;;;;;;7.20;6.40;;;21.30;74.30;;;;;;5096652;28;20759;-43
2022/10/31 08:25:05;;;;;;;6.77;6.17;;;21.40;73.40;;;;;;5096187;28;20541;-48
2022/10/31 08:27:30;;;;;;;8.23;7.40;;;21.60;72.90;;;;;;5094817;28;20279;-42
2022/10/31 08:29:56;;;;;;;7.97;7.17;;;21.80;72.00;;;;;;5095904;28;20561;-44
2022/10/31 08:32:21;;;;;;;7.33;6.20;;;21.90;72.30;;;;;;5094737;28;20211;-45
2022/10/31 08:34:47;;;;;;;8.70;6.87;;;22.10;71.20;;;;;;5096562;28;20812;-44
2022/10/31 08:37:18;;;;;;;8.13;6.50;;;22.40;70.10;;;;;;5096093;28;20215;-46
2022/10/31 08:39:44;;;;;;;7.57;6.67;;;22.80;68.90;;;;;;5094421;28;20291;-48
2022/10/31 08:42:09;;;;;;;10.57;6.33;;;23.10;67.90;;;;;;5095020;28;20503;-43
2022/10/31 08:44:35;;;;;;;8.07;7.27;;;23.50;66.80;;;;;;5095348;28;20242;-46
2022/10/31 08:47:00;;;;;;;6.93;6.30;;;23.90;65.40;;;;;;5095331;28;20173;-45
2022/10/31 08:49:26;;;;;;;7.87;6.23;;;24.40;64.10;;;;;;5094828;28;20464;-45
2022/10/31 08:51:52;;;;;;;7.47;6.70;;;24.70;61.70;;;;;;5076913;28;20220;-45
2022/10/31 08:54:17;;;;;;;6.67;5.97;;;25.00;59.80;;;;;;5095934;28;20625;-44
2022/10/31 08:56:43;;;;;;;6.90;6.20;;;25.20;58.80;;;;;;5095168;28;20641;-46
2022/10/31 08:59:09;;;;;;;8.43;6.23;;;25.40;58.10;;;;;;5096713;28;20201;-44
2022/10/31 09:01:35;;;;;;;8.50;6.30;;;25.60;57.20;;;;;;5096565;28;20178;-45
2022/10/31 09:04:00;;;;;;;6.73;5.30;;;25.80;56.80;;;;;;5091513;28;20545;-45
2022/10/31 09:06:26;;;;;;;6.77;5.17;;;26.00;56.20;;;;;;5096148;28;20192;-43
2022/10/31 09:08:51;;;;;;;6.20;5.60;;;25.90;55.90;;;;;;5096044;28;20513;-43
2022/10/31 09:11:17;;;;;;;6.50;5.90;;;26.00;55.60;;;;;;5096011;28;20176;-44
2022/10/31 09:13:43;;;;;;;7.27;5.73;;;25.90;55.60;;;;;;5096698;28;20173;-45
2022/10/31 09:16:08;;;;;;;5.90;5.10;;;25.80;55.60;;;;;;5095741;28;20271;-44
2022/10/31 09:18:34;;;;;;;7.27;5.23;;;25.80;55.40;;;;;;5095485;28;20568;-47
2022/10/31 09:21:00;;;;;;;9.57;6.13;;;25.90;55.10;;;;;;5094697;28;20176;-43
2022/10/31 09:23:26;;;;;;;7.13;5.07;;;25.90;54.60;;;;;;5096110;28;20556;-45
2022/10/31 09:25:52;;;;;;;8.07;5.50;;;25.80;54.20;;;;;;5096410;28;20414;-47
2022/10/31 09:28:23;;;;;;;6.13;5.30;;;25.70;54.40;;;;;;5077653;28;20184;-43
2022/10/31 09:30:50;;;;;;;5.40;4.90;;;25.60;54.30;;;;;;5095688;28;20521;-44
2022/10/31 09:33:16;;;;;;;7.60;5.53;;;25.60;54.40;;;;;;5077734;28;20437;-45
2022/10/31 09:35:42;;;;;;;5.50;4.30;;;25.60;54.00;;;;;;5096219;28;20438;-47
2022/10/31 09:38:19;;;;;;;5.43;4.70;;;25.70;53.90;;;;;;5096870;28;20411;-43
2022/10/31 09:40:55;;;;;;;8.47;5.53;;;25.90;53.60;;;;;;5096729;28;20416;-43
2022/10/31 09:43:39;;;;;;;5.77;4.57;;;25.90;53.20;;;;;;5094214;28;20724;-46
2022/10/31 09:46:13;;;;;;;7.13;4.47;;;26.10;52.90;;;;;;5095599;28;20468;-44
2022/10/31 09:48:54;;;;;;;5.97;5.20;;;26.10;52.70;;;;;;5077334;28;20410;-46
2022/10/31 09:51:28;;;;;;;6.80;4.90;;;26.20;52.60;;;;;;5095211;28;20533;-46
2022/10/31 09:54:17;;;;;;;5.27;4.57;;;26.20;52.60;;;;;;5076926;28;20403;-44
2022/10/31 09:56:43;;;;;;;8.17;5.07;;;26.30;52.30;;;;;;5041345;28;20484;-44
2022/10/31 09:59:26;;;;;;;8.10;4.90;;;26.40;52.70;;;;;;5076408;28;20531;-46
2022/10/31 10:02:02;;;;;;;6.93;5.00;;;26.50;52.00;;;;;;5076320;28;20739;-46
2022/10/31 10:04:38;;;;;;;8.30;4.93;;;26.70;51.70;;;;;;5097643;28;20812;-44
2022/10/31 10:07:20;;;;;;;8.10;5.13;;;26.90;51.40;;;;;;5098161;28;20430;-45
2022/10/31 10:09:46;;;;;;;9.37;4.97;;;27.00;51.10;;;;;;5077839;28;20427;-44
2022/10/31 10:12:43;;;;;;;4.90;4.40;;;27.30;50.90;;;;;;5093865;28;20760;-45
2022/10/31 10:15:47;;;;;;;5.30;4.80;;;27.60;50.40;;;;;;5099988;28;20177;-46
2022/10/31 10:18:28;;;;;;;5.60;5.10;;;28.00;49.70;;;;;;5098918;28;20442;-45
2022/10/31 10:21:14;;;;;;;5.73;4.43;;;28.40;49.00;;;;;;5096403;28;20885;-46
2022/10/31 10:23:49;;;;;;;5.83;4.80;;;28.80;48.40;;;;;;5098631;28;20412;-46
2022/10/31 10:26:36;;;;;;;6.17;5.13;;;29.00;47.70;;;;;;5096095;28;20521;-46
2022/10/31 10:29:22;;;;;;;13.20;5.80;;;29.30;47.00;;;;;;5096872;28;20476;-45
2022/10/31 10:31:49;;;;;;;7.10;4.90;;;29.40;46.20;;;;;;5097062;28;20458;-44
2022/10/31 10:34:26;;;;;;;6.53;5.87;;;29.40;46.00;;;;;;5096651;28;20577;-49
2022/10/31 10:37:21;;;;;;;6.13;5.30;;;29.50;45.80;;;;;;5096267;28;20425;-47
2022/10/31 10:39:49;;;;;;;7.23;5.47;;;29.70;45.50;;;;;;5078099;28;20466;-43
2022/10/31 10:48:43;;;;;;;5.23;4.70;;;30.00;44.60;;;;;;5099754;28;20411;-46
2022/10/31 10:51:22;;;;;;;7.30;4.83;;;29.90;45.10;;;;;;5071754;28;20450;-49
2022/10/31 10:54:03;;;;;;;7.53;4.17;;;29.80;45.00;;;;;;5092328;28;20625;-43
2022/10/31 10:56:40;;;;;;;5.73;3.90;;;29.80;45.30;;;;;;5095193;28;20948;-45
2022/10/31 10:59:11;;;;;;;4.57;4.07;;;30.00;45.30;;;;;;5096296;28;20522;-45
2022/10/31 11:01:38;;;;;;;5.50;4.60;;;30.40;45.10;;;;;;5096909;28;20589;-48
2022/10/31 11:04:15;;;;;;;5.93;4.47;;;30.70;45.00;;;;;;5075386;28;20911;-46
2022/10/31 11:06:41;;;;;;;12.90;4.70;;;31.30;44.10;;;;;;5094289;28;20411;-43
2022/10/31 11:09:10;;;;;;;5.93;4.30;;;32.10;42.80;;;;;;5119375;28;20396;-43
2022/10/31 11:11:38;;;;;;;5.83;4.60;;;33.10;41.80;;;;;;5120165;28;20661;-46
2022/10/31 11:14:11;;;;;;;4.67;4.17;;;33.90;40.40;;;;;;5118243;28;20536;-47
2022/10/31 11:16:40;;;;;;;7.93;4.57;;;34.60;39.50;;;;;;5099293;28;20430;-44
2022/10/31 11:19:19;;;;;;;6.80;5.07;;;35.30;38.50;;;;;;5107186;28;20897;-44
2022/10/31 11:21:45;;;;;;;7.50;5.33;;;35.80;37.90;;;;;;5098684;28;20426;-49
2022/10/31 11:24:11;;;;;;;7.90;5.47;;;36.20;37.20;;;;;;5093857;28;20828;-50
2022/10/31 11:26:42;;;;;;;6.20;4.30;;;36.30;36.80;;;;;;5085526;28;20404;-45
2022/10/31 11:29:21;;;;;;;6.33;4.10;;;36.60;36.40;;;;;;5078272;28;20186;-43
2022/10/31 11:31:50;;;;;;;7.00;5.17;;;36.90;36.00;;;;;;5059261;28;20546;-43
2022/10/31 11:34:20;;;;;;;6.03;4.70;;;37.00;35.70;;;;;;5076144;28;20404;-45
2022/10/31 11:36:46;;;;;;;10.80;5.60;;;37.00;35.40;;;;;;5077703;28;20420;-47
2022/10/31 11:39:19;;;;;;;5.40;4.37;;;36.90;35.20;;;;;;5077383;28;20866;-45
2022/10/31 11:41:45;;;;;;;6.53;5.03;;;36.80;35.10;;;;;;5058813;28;20186;-43
2022/10/31 11:44:24;;;;;;;5.60;4.27;;;36.70;35.00;;;;;;5076157;28;20414;-44
2022/10/31 11:46:57;;;;;;;5.70;4.50;;;36.10;35.00;;;;;;5076013;28;20463;-47
2022/10/31 11:49:44;;;;;;;7.27;4.77;;;35.60;35.20;;;;;;5086070;28;20451;-45
2022/10/31 11:52:22;;;;;;;5.63;5.03;;;34.70;35.80;;;;;;5095913;28;21044;-44
2022/10/31 11:54:55;;;;;;;10.13;5.03;;;34.20;36.10;;;;;;5077169;28;20412;-43
2022/10/31 11:57:31;;;;;;;6.13;4.73;;;33.50;36.50;;;;;;5077198;28;20720;-44
2022/10/31 11:59:59;;;;;;;8.70;4.70;;;32.90;37.10;;;;;;5075708;28;20470;-44
2022/10/31 12:02:26;;;;;;;6.07;4.90;;;32.60;37.60;;;;;;5076004;28;20394;-44
2022/10/31 12:05:17;;;;;;;8.20;5.10;;;32.30;37.90;;;;;;5075634;28;20447;-45
2022/10/31 12:07:43;;;;;;;7.90;4.33;;;32.50;38.00;;;;;;5074190;28;20411;-45
2022/10/31 12:10:13;;;;;;;7.17;4.53;;;32.80;37.60;;;;;;5075209;28;20815;-45
2022/10/31 12:12:57;;;;;;;6.43;4.70;;;33.10;37.30;;;;;;5057341;28;20491;-48
2022/10/31 12:15:36;;;;;;;5.80;4.20;;;33.40;37.10;;;;;;5075451;28;20416;-44
2022/10/31 12:18:23;;;;;;;6.67;4.63;;;33.70;36.60;;;;;;5058112;28;20396;-43
2022/10/31 12:21:09;;;;;;;6.67;4.37;;;33.80;36.40;;;;;;5075223;28;20785;-43
2022/10/31 12:23:56;;;;;;;4.53;4.00;;;33.50;36.40;;;;;;5074799;28;20405;-43
2022/10/31 12:26:40;;;;;;;4.70;4.20;;;32.60;37.10;;;;;;5075391;28;20531;-43
2022/10/31 12:29:23;;;;;;;6.90;4.90;;;32.00;37.70;;;;;;5076161;28;20386;-45
2022/10/31 12:32:00;;;;;;;6.27;4.77;;;31.20;38.20;;;;;;5074410;28;20413;-45
2022/10/31 12:35:05;;;;;;;7.27;6.00;;;30.50;38.80;;;;;;5075771;28;20807;-47
2022/10/31 12:38:16;;;;;;;5.60;5.10;;;29.80;39.60;;;;;;5075855;28;20451;-46
2022/10/31 12:40:57;;;;;;;5.83;5.17;;;29.00;40.70;;;;;;4977583;28;20874;-45
2022/10/31 12:43:39;;;;;;;7.07;5.67;;;28.50;41.50;;;;;;5071082;28;20408;-45
2022/10/31 12:46:16;;;;;;;7.70;5.07;;;28.10;42.30;;;;;;5075591;28;20443;-44
2022/10/31 12:48:48;;;;;;;6.73;5.40;;;27.80;42.60;;;;;;5059033;28;20408;-44
2022/10/31 12:51:38;;;;;;;6.50;5.40;;;27.60;43.10;;;;;;5083588;28;20427;-44
2022/10/31 12:54:33;;;;;;;6.37;5.77;;;27.40;43.60;;;;;;5099082;28;20674;-47
2022/10/31 12:57:02;;;;;;;7.80;6.43;;;27.30;43.90;;;;;;5080071;28;20495;-46
2022/10/31 12:59:47;;;;;;;8.37;6.47;;;27.20;44.50;;;;;;5094368;28;20421;-44
2022/10/31 13:02:45;;;;;;;11.20;5.77;;;27.00;44.40;;;;;;5077434;28;20419;-46
2022/10/31 13:05:32;;;;;;;9.90;6.97;;;26.80;44.70;;;;;;5038113;28;20621;-47
2022/10/31 13:08:15;;;;;;;9.90;8.00;;;26.70;44.90;;;;;;5094817;28;20397;-45